createdAt,value
2018-12-25T00:00:18.800Z,99.26
2018-12-25T00:02:51.959Z,98.82
2018-12-25T00:05:23.145Z,98.78
2018-12-25T00:07:54.476Z,98.89
2018-12-25T00:10:25.862Z,99.17
2018-12-25T00:12:56.915Z,99.55
2018-12-25T00:15:28.455Z,98.98
2018-12-25T00:17:59.507Z,98.96
2018-12-25T00:20:30.378Z,99.08
2018-12-25T00:23:01.627Z,99.25
2018-12-25T00:25:32.712Z,99.54
2018-12-25T00:28:04.460Z,99.60
2018-12-25T00:30:35.498Z,99.58
2018-12-25T00:33:06.852Z,99.34
2018-12-25T00:35:38.693Z,99.30
2018-12-25T00:38:10.053Z,99.07
2018-12-25T00:40:41.231Z,99.11
2018-12-25T00:43:12.563Z,98.78
2018-12-25T00:45:44.130Z,98.13
2018-12-25T00:48:15.151Z,97.73
2018-12-25T00:50:46.645Z,96.95
2018-12-25T00:53:17.855Z,97.36
2018-12-25T00:55:49.395Z,97.64
2018-12-25T00:58:21.157Z,97.75
2018-12-25T01:00:52.309Z,97.97
2018-12-25T01:03:23.755Z,99.08
2018-12-25T01:05:54.918Z,98.99
2018-12-25T01:08:26.322Z,98.44
2018-12-25T01:10:58.319Z,98.05
2018-12-25T01:13:32.220Z,98.06
2018-12-25T01:16:03.067Z,97.95
2018-12-25T01:18:33.860Z,97.61
2018-12-25T01:21:04.987Z,97.87
2018-12-25T01:23:35.985Z,97.93
2018-12-25T01:26:07.057Z,97.67
2018-12-25T01:28:37.880Z,97.84
2018-12-25T01:31:09.744Z,97.97
2018-12-25T01:33:40.761Z,97.83
2018-12-25T01:36:12.485Z,97.66
2018-12-25T01:38:43.543Z,97.75
2018-12-25T01:41:14.764Z,97.79
2018-12-25T01:43:45.817Z,97.51
2018-12-25T01:46:16.800Z,97.40
2018-12-25T01:48:47.543Z,97.81
2018-12-25T01:51:18.378Z,97.59
2018-12-25T01:53:50.078Z,97.28
2018-12-25T01:56:21.003Z,96.95
2018-12-25T01:58:51.999Z,97.33
2018-12-25T02:01:23.627Z,97.36
2018-12-25T02:03:55.012Z,97.54
2018-12-25T02:06:26.198Z,97.59
2018-12-25T02:08:57.190Z,97.91
2018-12-25T02:11:28.236Z,98.80
2018-12-25T02:13:59.237Z,98.68
2018-12-25T02:16:30.325Z,98.86
2018-12-25T02:19:01.352Z,99.08
2018-12-25T02:21:32.284Z,98.83
2018-12-25T02:24:03.343Z,98.11
2018-12-25T02:26:34.994Z,98.19
2018-12-25T02:29:06.369Z,97.91
2018-12-25T02:31:38.159Z,97.58
2018-12-25T02:34:11.019Z,97.52
2018-12-25T02:36:42.102Z,97.75
2018-12-25T02:39:13.180Z,98.55
2018-12-25T02:41:44.525Z,98.96
2018-12-25T02:44:15.882Z,99.34
2018-12-25T02:46:46.823Z,98.50
2018-12-25T02:49:18.414Z,98.80
2018-12-25T02:51:49.554Z,99.15
2018-12-25T02:54:20.764Z,99.41
2018-12-25T02:56:52.122Z,98.74
2018-12-25T02:59:23.956Z,97.74
2018-12-25T03:01:55.071Z,97.88
2018-12-25T03:04:26.476Z,97.89
2018-12-25T03:06:57.718Z,97.60
2018-12-25T03:09:29.158Z,97.70
2018-12-25T03:12:00.208Z,97.70
2018-12-25T03:14:31.368Z,97.86
2018-12-25T03:17:02.331Z,97.72
2018-12-25T03:19:33.586Z,97.69
2018-12-25T03:22:04.496Z,97.92
2018-12-25T03:24:35.574Z,97.48
2018-12-25T03:27:07.075Z,97.70
2018-12-25T03:29:37.828Z,97.68
2018-12-25T03:32:08.712Z,97.90
2018-12-25T03:34:40.108Z,98.05
2018-12-25T03:37:11.646Z,98.09
2018-12-25T03:39:42.538Z,98.03
2018-12-25T03:42:14.338Z,97.68
2018-12-25T03:44:45.402Z,97.87
2018-12-25T03:47:16.391Z,98.33
2018-12-25T03:49:47.439Z,98.16
2018-12-25T03:52:19.013Z,97.83
2018-12-25T03:54:50.098Z,97.57
2018-12-25T03:57:21.533Z,97.67
2018-12-25T03:59:52.809Z,97.53
2018-12-25T04:02:23.623Z,97.47
2018-12-25T04:04:54.917Z,97.65
2018-12-25T04:07:26.247Z,97.47
2018-12-25T04:09:57.456Z,97.63
2018-12-25T04:12:28.888Z,97.91
2018-12-25T04:14:59.623Z,98.22
2018-12-25T04:17:31.110Z,97.89
2018-12-25T04:20:02.404Z,97.87
2018-12-25T04:22:33.772Z,97.95
2018-12-25T04:25:05.188Z,98.78
2018-12-25T04:27:36.700Z,98.90
2018-12-25T04:30:07.517Z,98.39
2018-12-25T04:32:38.445Z,97.85
2018-12-25T04:35:10.136Z,98.03
2018-12-25T04:37:41.447Z,98.22
2018-12-25T04:40:12.255Z,98.48
2018-12-25T04:42:43.510Z,98.69
2018-12-25T04:45:14.478Z,97.75
2018-12-25T04:47:45.476Z,97.94
2018-12-25T04:50:16.724Z,97.98
2018-12-25T04:52:47.744Z,98.00
2018-12-25T04:55:18.918Z,98.20
2018-12-25T04:57:51.763Z,98.88
2018-12-25T05:00:22.920Z,98.85
2018-12-25T05:02:53.836Z,98.66
2018-12-25T05:05:24.894Z,98.48
2018-12-25T05:07:55.651Z,98.19
2018-12-25T05:10:26.623Z,97.89
2018-12-25T05:12:57.607Z,97.41
2018-12-25T05:15:28.843Z,97.44
2018-12-25T05:17:59.605Z,98.04
2018-12-25T05:20:37.825Z,98.54
2018-12-25T05:23:03.390Z,99.15
2018-12-25T05:25:34.383Z,98.59
2018-12-25T05:28:05.690Z,98.70
2018-12-25T05:30:36.735Z,98.74
2018-12-25T05:33:07.989Z,98.75
2018-12-25T05:35:38.804Z,99.08
2018-12-25T05:38:09.607Z,98.50
2018-12-25T05:40:40.578Z,98.79
2018-12-25T05:43:11.918Z,98.28
2018-12-25T05:45:43.201Z,97.95
2018-12-25T05:48:14.430Z,97.84
2018-12-25T05:50:46.751Z,98.10
2018-12-25T05:53:18.171Z,98.14
2018-12-25T05:55:49.804Z,98.17
2018-12-25T05:58:20.785Z,98.24
2018-12-25T06:00:51.889Z,98.53
2018-12-25T06:03:23.081Z,98.84
2018-12-25T06:05:54.478Z,98.18
2018-12-25T06:08:25.465Z,98.44
2018-12-25T06:10:56.525Z,98.81
2018-12-25T06:13:27.790Z,98.46
2018-12-25T06:15:59.305Z,98.43
2018-12-25T06:18:31.575Z,98.20
2018-12-25T06:21:02.568Z,98.52
2018-12-25T06:23:33.569Z,98.49
2018-12-25T06:26:04.304Z,98.68
2018-12-25T06:28:35.316Z,98.23
2018-12-25T06:31:06.626Z,98.17
2018-12-25T06:33:37.837Z,97.81
2018-12-25T06:36:09.263Z,97.82
2018-12-25T06:38:40.045Z,97.80
2018-12-25T06:41:11.078Z,97.55
2018-12-25T06:43:42.088Z,97.98
2018-12-25T06:46:13.140Z,97.74
2018-12-25T06:48:44.757Z,97.74
2018-12-25T06:51:15.743Z,98.03
2018-12-25T06:53:46.993Z,98.96
2018-12-25T06:56:18.323Z,98.54
2018-12-25T06:58:49.095Z,98.92
2018-12-25T07:01:20.172Z,99.28
2018-12-25T07:03:51.755Z,99.30
2018-12-25T07:06:22.896Z,99.49
2018-12-25T07:08:53.735Z,99.42
2018-12-25T07:11:24.982Z,99.38
2018-12-25T07:13:55.966Z,98.56
2018-12-25T07:16:27.258Z,98.20
2018-12-25T07:18:58.271Z,97.68
2018-12-25T07:21:29.599Z,97.85
2018-12-25T07:24:00.850Z,97.89
2018-12-25T07:26:31.889Z,97.90
2018-12-25T07:29:02.962Z,97.95
2018-12-25T07:31:34.298Z,98.12
2018-12-25T07:34:05.095Z,98.07
2018-12-25T07:36:37.103Z,98.11
2018-12-25T07:39:07.986Z,97.83
2018-12-25T07:41:39.431Z,97.44
2018-12-25T07:44:10.537Z,97.12
2018-12-25T07:46:41.730Z,97.15
2018-12-25T07:49:13.006Z,97.28
2018-12-25T07:51:43.823Z,97.60
2018-12-25T07:54:14.592Z,97.37
2018-12-25T07:56:45.701Z,97.31
2018-12-25T07:59:16.981Z,97.44
2018-12-25T08:01:48.332Z,97.43
2018-12-25T08:04:19.353Z,97.89
2018-12-25T08:06:50.586Z,98.50
2018-12-25T08:09:21.654Z,98.54
2018-12-25T08:11:53.716Z,98.46
2018-12-25T08:14:24.853Z,97.45
2018-12-25T08:16:55.846Z,97.68
2018-12-25T08:19:27.010Z,97.42
2018-12-25T08:21:58.235Z,97.27
2018-12-25T08:24:30.063Z,97.06
2018-12-25T08:27:01.482Z,97.37
2018-12-25T08:29:32.912Z,97.35
2018-12-25T08:32:03.755Z,97.19
2018-12-25T08:34:35.078Z,97.19
2018-12-25T08:37:06.115Z,97.34
2018-12-25T08:39:37.323Z,97.02
2018-12-25T08:42:08.290Z,97.12
2018-12-25T08:44:39.330Z,97.03
2018-12-25T08:47:11.609Z,96.93
2018-12-25T08:49:42.961Z,96.89
2018-12-25T08:52:14.479Z,96.57
2018-12-25T08:54:45.471Z,96.83
2018-12-25T08:57:17.160Z,96.82
2018-12-25T08:59:48.170Z,96.62
2018-12-25T09:02:19.242Z,96.38
2018-12-25T09:04:50.891Z,95.95
2018-12-25T09:07:22.039Z,95.35
2018-12-25T09:09:53.790Z,95.49
2018-12-25T09:12:24.943Z,94.82
2018-12-25T09:14:56.591Z,94.73
2018-12-25T09:17:27.463Z,95.19
2018-12-25T09:19:58.286Z,94.98
2018-12-25T09:22:29.411Z,94.76
2018-12-25T09:25:00.759Z,95.29
2018-12-25T09:27:32.272Z,95.06
2018-12-25T09:30:03.379Z,94.95
2018-12-25T09:32:34.627Z,95.00
2018-12-25T09:35:05.711Z,94.58
2018-12-25T09:37:36.460Z,94.08
2018-12-25T09:40:07.892Z,94.76
2018-12-25T09:42:39.298Z,93.97
2018-12-25T09:45:10.075Z,94.25
2018-12-25T09:47:41.222Z,93.70
2018-12-25T09:50:12.295Z,93.44
2018-12-25T09:52:43.600Z,93.70
2018-12-25T09:55:14.446Z,93.09
2018-12-25T09:57:45.429Z,93.03
2018-12-25T10:00:17.497Z,93.27
2018-12-25T10:02:48.766Z,92.55
2018-12-25T10:05:19.794Z,92.60
2018-12-25T10:07:50.905Z,92.66
2018-12-25T10:10:22.169Z,92.38
2018-12-25T10:12:53.191Z,91.52
2018-12-25T10:15:23.966Z,89.54
2018-12-25T10:17:54.990Z,89.37
2018-12-25T10:20:28.200Z,91.25
2018-12-25T10:22:59.336Z,89.91
2018-12-25T10:25:30.411Z,89.72
2018-12-25T10:28:01.393Z,89.62
2018-12-25T10:30:32.227Z,89.42
2018-12-25T10:33:03.450Z,88.76
2018-12-25T10:35:34.730Z,88.62
2018-12-25T10:38:05.470Z,86.78
2018-12-25T10:40:36.472Z,85.48
2018-12-25T10:43:07.939Z,86.71
2018-12-25T10:45:40.031Z,87.74
2018-12-25T10:48:11.332Z,86.41
2018-12-25T10:50:43.114Z,86.08
2018-12-25T10:53:14.089Z,84.27
2018-12-25T10:55:45.347Z,83.83
2018-12-25T10:58:16.638Z,85.12
2018-12-25T11:00:51.050Z,84.29
2018-12-25T11:03:22.696Z,83.90
2018-12-25T11:05:54.039Z,82.93
2018-12-25T11:08:26.282Z,83.97
2018-12-25T11:10:58.155Z,84.39
2018-12-25T11:13:29.126Z,80.99
2018-12-25T11:16:00.282Z,80.34
2018-12-25T11:18:31.106Z,81.97
2018-12-25T11:21:02.783Z,85.28
2018-12-25T11:23:34.281Z,84.32
2018-12-25T11:26:05.068Z,83.02
2018-12-25T11:28:36.189Z,83.32
2018-12-25T11:31:08.360Z,84.21
2018-12-25T11:33:39.294Z,82.68
2018-12-25T11:36:10.624Z,81.13
2018-12-25T11:38:42.063Z,82.42
2018-12-25T11:41:13.423Z,84.52
2018-12-25T11:43:44.466Z,84.02
2018-12-25T11:46:15.241Z,81.01
2018-12-25T11:48:46.263Z,80.71
2018-12-25T11:51:17.013Z,81.87
2018-12-25T11:53:47.937Z,80.07
2018-12-25T11:56:19.615Z,78.79
2018-12-25T11:58:51.228Z,79.64
2018-12-25T12:01:22.882Z,80.08
2018-12-25T12:03:54.039Z,80.22
2018-12-25T12:06:24.890Z,80.51
2018-12-25T12:08:55.900Z,83.65
2018-12-25T12:11:27.183Z,79.32
2018-12-25T12:13:58.409Z,81.02
2018-12-25T12:16:30.178Z,78.60
2018-12-25T12:19:01.118Z,78.08
2018-12-25T12:21:32.962Z,77.70
2018-12-25T12:24:03.794Z,82.15
2018-12-25T12:26:35.045Z,82.16
2018-12-25T12:29:06.389Z,81.79
2018-12-25T12:31:37.240Z,78.17
2018-12-25T12:34:08.030Z,78.86
2018-12-25T12:36:39.226Z,79.33
2018-12-25T12:39:10.363Z,77.41
2018-12-25T12:41:41.454Z,78.33
2018-12-25T12:44:12.765Z,77.07
2018-12-25T12:46:44.118Z,78.64
2018-12-25T12:49:15.127Z,79.64
2018-12-25T12:51:46.132Z,77.38
2018-12-25T12:54:18.056Z,77.54
2018-12-25T12:56:49.228Z,78.87
2018-12-25T12:59:20.287Z,75.80
2018-12-25T13:01:51.709Z,76.47
2018-12-25T13:04:23.239Z,76.39
2018-12-25T13:06:54.572Z,78.50
2018-12-25T13:09:25.836Z,80.73
2018-12-25T13:11:56.861Z,79.98
2018-12-25T13:14:28.172Z,79.48
2018-12-25T13:16:59.243Z,80.88
2018-12-25T13:19:30.390Z,79.48
2018-12-25T13:22:01.703Z,81.39
2018-12-25T13:24:32.463Z,82.09
2018-12-25T13:27:03.612Z,79.92
2018-12-25T13:29:34.679Z,81.07
2018-12-25T13:32:05.818Z,81.06
2018-12-25T13:34:37.576Z,82.28
2018-12-25T13:37:08.360Z,81.34
2018-12-25T13:39:39.622Z,82.01
2018-12-25T13:42:10.627Z,82.38
2018-12-25T13:44:41.959Z,81.18
2018-12-25T13:47:12.973Z,81.92
2018-12-25T13:49:44.292Z,80.39
2018-12-25T13:52:15.405Z,80.47
2018-12-25T13:54:46.752Z,80.16
2018-12-25T13:57:17.834Z,81.98
2018-12-25T13:59:49.124Z,81.34
2018-12-25T14:02:19.906Z,82.36
2018-12-25T14:04:50.910Z,83.03
2018-12-25T14:07:22.155Z,83.36
2018-12-25T14:09:53.231Z,83.12
2018-12-25T14:12:24.590Z,82.35
2018-12-25T14:14:55.339Z,82.46
2018-12-25T14:17:26.637Z,84.26
2018-12-25T14:19:57.482Z,84.13
2018-12-25T14:22:28.599Z,84.83
2018-12-25T14:24:59.890Z,84.08
2018-12-25T14:27:30.714Z,86.07
2018-12-25T14:30:02.086Z,85.58
2018-12-25T14:32:33.312Z,84.54
2018-12-25T14:35:04.644Z,85.80
2018-12-25T14:37:35.437Z,87.35
2018-12-25T14:40:06.723Z,88.24
2018-12-25T14:42:38.270Z,87.28
2018-12-25T14:45:09.112Z,87.50
2018-12-25T14:47:40.356Z,87.59
2018-12-25T14:50:11.167Z,86.49
2018-12-25T14:52:42.212Z,86.78
2018-12-25T14:55:13.276Z,88.18
2018-12-25T14:57:44.259Z,88.81
2018-12-25T15:00:15.250Z,87.69
2018-12-25T15:02:46.067Z,88.63
2018-12-25T15:05:17.193Z,89.00
2018-12-25T15:07:48.272Z,89.05
2018-12-25T15:10:19.534Z,87.77
2018-12-25T15:12:50.595Z,88.81
2018-12-25T15:15:21.657Z,88.81
2018-12-25T15:17:52.702Z,89.51
2018-12-25T15:20:23.771Z,89.97
2018-12-25T15:22:54.755Z,89.54
2018-12-25T15:25:25.783Z,89.37
2018-12-25T15:27:57.036Z,90.42
2018-12-25T15:30:27.937Z,90.74
2018-12-25T15:32:59.642Z,90.85
2018-12-25T15:35:30.474Z,90.08
2018-12-25T15:38:02.128Z,89.66
2018-12-25T15:40:33.136Z,90.93
2018-12-25T15:43:03.894Z,91.98
2018-12-25T15:45:34.918Z,92.07
2018-12-25T15:48:05.956Z,91.68
2018-12-25T15:50:37.034Z,90.67
2018-12-25T15:56:15.437Z,91.99
2018-12-25T15:59:12.184Z,91.41
2018-12-25T16:01:42.926Z,91.67
2018-12-25T16:04:13.749Z,91.19
2018-12-25T16:06:45.057Z,91.31
2018-12-25T16:09:16.309Z,91.82
2018-12-25T16:11:47.511Z,91.48
2018-12-25T16:14:18.826Z,91.94
2018-12-25T16:16:49.912Z,92.04
2018-12-25T16:19:20.902Z,92.42
2018-12-25T16:21:51.978Z,92.73
2018-12-25T16:24:27.481Z,93.67
2018-12-25T16:26:55.499Z,93.76
2018-12-25T16:29:26.977Z,94.08
2018-12-25T16:31:58.223Z,93.92
2018-12-25T16:34:28.989Z,93.82
2018-12-25T16:37:00.318Z,94.07
2018-12-25T16:39:31.410Z,94.76
2018-12-25T16:42:02.800Z,94.68
2018-12-25T16:44:33.869Z,94.34
2018-12-25T16:47:04.829Z,93.78
2018-12-25T16:49:35.588Z,94.39
2018-12-25T16:52:06.622Z,94.64
2018-12-25T16:54:37.870Z,94.53
2018-12-25T16:57:11.049Z,95.46
2018-12-25T16:59:41.896Z,95.31
2018-12-25T17:02:12.934Z,95.63
2018-12-25T17:04:44.069Z,95.96
2018-12-25T17:07:14.961Z,95.79
2018-12-25T17:09:45.950Z,95.73
2018-12-25T17:12:16.909Z,95.74
2018-12-25T17:14:47.988Z,96.13
2018-12-25T17:17:18.987Z,96.26
2018-12-25T17:19:49.757Z,96.36
2018-12-25T17:22:20.799Z,96.16
2018-12-25T17:24:52.073Z,96.25
2018-12-25T17:27:23.353Z,95.99
2018-12-25T17:29:54.558Z,95.84
2018-12-25T17:32:25.519Z,95.93
2018-12-25T17:34:56.573Z,95.54
2018-12-25T17:37:29.506Z,95.72
2018-12-25T17:40:00.774Z,96.34
2018-12-25T17:42:31.594Z,96.23
2018-12-25T17:45:02.879Z,96.42
2018-12-25T17:47:34.408Z,96.58
2018-12-25T17:50:06.094Z,96.69
2018-12-25T17:52:37.105Z,96.77
2018-12-25T17:55:07.937Z,96.65
2018-12-25T17:57:39.043Z,96.84
2018-12-25T18:00:10.078Z,96.87
2018-12-25T18:02:41.874Z,97.38
2018-12-25T18:05:13.006Z,97.27
2018-12-25T18:07:44.061Z,96.91
2018-12-25T18:10:15.319Z,97.37
2018-12-25T18:12:46.955Z,97.06
2018-12-25T18:15:17.946Z,97.15
2018-12-25T18:17:49.434Z,96.68
2018-12-25T18:20:20.494Z,97.24
2018-12-25T18:22:51.777Z,97.00
2018-12-25T18:25:22.605Z,97.29
2018-12-25T18:27:53.433Z,97.23
2018-12-25T18:30:24.183Z,97.38
2018-12-25T18:32:57.233Z,97.32
2018-12-25T18:35:27.880Z,97.26
2018-12-25T18:37:59.123Z,97.44
2018-12-25T18:40:29.920Z,97.32
2018-12-25T18:43:01.080Z,97.47
2018-12-25T18:45:31.766Z,97.24
2018-12-25T18:48:03.158Z,96.37
2018-12-25T18:50:33.907Z,96.52
2018-12-25T18:53:04.746Z,96.88
2018-12-25T18:55:36.237Z,96.73
2018-12-25T18:58:07.362Z,96.64
2018-12-25T19:00:38.148Z,95.79
2018-12-25T19:03:09.237Z,95.61
2018-12-25T19:05:40.545Z,96.04
2018-12-25T19:08:11.246Z,96.40
2018-12-25T19:10:42.219Z,96.29
2018-12-25T19:13:13.544Z,96.39
2018-12-25T19:15:46.558Z,96.21
2018-12-25T19:18:17.351Z,96.27
2018-12-25T19:20:48.494Z,96.31
2018-12-25T19:23:19.544Z,95.64
2018-12-25T19:25:50.587Z,96.01
2018-12-25T19:28:21.862Z,96.51
2018-12-25T19:30:52.847Z,96.75
2018-12-25T19:33:24.191Z,96.74
2018-12-25T19:35:55.197Z,96.45
2018-12-25T19:38:26.309Z,96.37
2018-12-25T19:40:57.352Z,96.35
2018-12-25T19:43:28.473Z,96.56
2018-12-25T19:45:59.501Z,96.44
2018-12-25T19:48:30.488Z,96.52
2018-12-25T19:51:01.791Z,96.51
2018-12-25T19:53:32.836Z,96.67
2018-12-25T19:56:03.717Z,96.67
2018-12-25T19:58:35.262Z,97.07
2018-12-25T20:01:06.074Z,96.90
2018-12-25T20:03:51.522Z,96.94
2018-12-25T20:06:50.706Z,96.84
2018-12-25T20:10:10.756Z,96.71
2018-12-25T20:13:18.451Z,96.86
2018-12-25T20:16:36.660Z,96.67
2018-12-25T20:19:30.029Z,97.00
2018-12-25T20:22:40.738Z,96.83
2018-12-25T20:26:03.389Z,96.81
2018-12-25T20:29:02.436Z,96.58
2018-12-25T20:31:55.603Z,96.55
2018-12-25T20:35:10.497Z,96.62
2018-12-25T20:38:21.565Z,96.18
2018-12-25T20:41:17.425Z,96.05
2018-12-25T20:44:23.912Z,96.19
2018-12-25T20:47:37.949Z,97.34
2018-12-25T20:50:59.078Z,97.24
2018-12-25T20:54:03.086Z,96.20
2018-12-25T20:57:07.479Z,97.33
2018-12-25T21:00:17.426Z,97.16
2018-12-25T21:03:28.883Z,96.73
2018-12-25T21:06:59.054Z,96.50
2018-12-25T21:10:12.882Z,96.53
2018-12-25T21:13:37.358Z,96.42
2018-12-25T21:16:35.550Z,95.75
2018-12-25T21:19:30.870Z,96.97
2018-12-25T21:22:37.359Z,97.04
2018-12-25T21:25:44.180Z,96.34
2018-12-25T21:28:14.005Z,96.63
2018-12-25T21:30:45.178Z,96.21
2018-12-25T21:33:17.453Z,96.08
2018-12-25T21:35:48.806Z,96.13
2018-12-25T21:38:19.733Z,96.42
2018-12-25T21:41:22.172Z,96.68
2018-12-25T21:43:53.576Z,96.89
2018-12-25T21:46:26.343Z,96.61
2018-12-25T21:48:57.583Z,97.17
2018-12-25T21:54:29.621Z,97.50
2018-12-25T21:57:20.201Z,96.34
2018-12-25T22:00:12.629Z,96.19
2018-12-25T22:02:43.728Z,96.89
2018-12-25T22:05:14.962Z,97.12
2018-12-25T22:07:46.213Z,96.99
2018-12-25T22:10:17.790Z,96.57
2018-12-25T22:12:48.771Z,96.36
2018-12-25T22:15:19.559Z,96.29
2018-12-25T22:17:50.571Z,96.24
2018-12-25T22:20:27.633Z,96.36
2018-12-25T22:22:58.666Z,96.53
2018-12-25T22:25:29.871Z,96.59
2018-12-25T22:28:00.834Z,96.43
2018-12-25T22:30:31.939Z,96.28
2018-12-25T22:33:03.296Z,96.29
2018-12-25T22:35:34.540Z,96.32
2018-12-25T22:38:05.694Z,96.40
2018-12-25T22:40:36.760Z,96.43
2018-12-25T22:43:07.737Z,96.38
2018-12-25T22:45:39.055Z,96.49
2018-12-25T22:48:10.438Z,96.57
2018-12-25T22:50:41.498Z,96.43
2018-12-25T22:53:12.434Z,96.37
2018-12-25T22:55:43.423Z,96.19
2018-12-25T22:58:14.733Z,96.79
2018-12-25T23:00:45.993Z,96.29
2018-12-25T23:03:23.609Z,96.25
2018-12-25T23:05:54.358Z,96.03
2018-12-25T23:08:25.096Z,96.24
2018-12-25T23:10:56.333Z,97.01
2018-12-25T23:13:27.555Z,97.25
2018-12-25T23:15:58.302Z,97.43
2018-12-25T23:18:29.278Z,97.41
2018-12-25T23:21:00.358Z,98.09
2018-12-25T23:23:31.087Z,97.90
2018-12-25T23:26:02.217Z,97.50
2018-12-25T23:28:33.560Z,97.52
2018-12-25T23:31:04.874Z,97.34
2018-12-25T23:33:35.947Z,97.30
2018-12-25T23:36:06.681Z,96.54
2018-12-25T23:38:37.732Z,96.13
2018-12-25T23:41:08.478Z,96.29
2018-12-25T23:43:39.453Z,96.59
2018-12-25T23:46:10.445Z,96.31
2018-12-25T23:48:41.709Z,96.52
2018-12-25T23:51:12.578Z,96.98
2018-12-25T23:53:43.617Z,97.72
2018-12-25T23:56:14.867Z,97.47
2018-12-25T23:58:45.955Z,97.14
